sensor_id;sensor_type;location;lat;lon;timestamp;P1;durP1;ratioP1;P2;durP2;ratioP2
42144;SDS011;27813;43.516;11.890;2023-11-19T00:03:21;8.55;;;5.15;;
42144;SDS011;27813;43.516;11.890;2023-11-19T00:07:25;9.30;;;5.27;;
42144;SDS011;27813;43.516;11.890;2023-11-19T00:11:38;8.68;;;4.72;;
42144;SDS011;27813;43.516;11.890;2023-11-19T00:15:43;17.73;;;8.85;;
42144;SDS011;27813;43.516;11.890;2023-11-19T00:19:50;11.35;;;5.40;;
42144;SDS011;27813;43.516;11.890;2023-11-19T00:23:55;9.20;;;5.47;;
42144;SDS011;27813;43.516;11.890;2023-11-19T00:28:01;11.43;;;5.55;;
42144;SDS011;27813;43.516;11.890;2023-11-19T00:32:05;8.82;;;5.32;;
42144;SDS011;27813;43.516;11.890;2023-11-19T00:36:15;10.90;;;6.68;;
42144;SDS011;27813;43.516;11.890;2023-11-19T00:40:19;12.20;;;6.90;;
42144;SDS011;27813;43.516;11.890;2023-11-19T00:44:26;8.52;;;5.25;;
42144;SDS011;27813;43.516;11.890;2023-11-19T00:48:30;7.18;;;4.88;;
42144;SDS011;27813;43.516;11.890;2023-11-19T00:52:35;12.07;;;5.85;;
42144;SDS011;27813;43.516;11.890;2023-11-19T00:56:40;9.15;;;5.47;;
42144;SDS011;27813;43.516;11.890;2023-11-19T01:00:47;10.38;;;4.78;;
42144;SDS011;27813;43.516;11.890;2023-11-19T01:04:53;8.32;;;4.47;;
42144;SDS011;27813;43.516;11.890;2023-11-19T01:08:57;7.00;;;5.03;;
42144;SDS011;27813;43.516;11.890;2023-11-19T01:13:02;8.05;;;5.05;;
42144;SDS011;27813;43.516;11.890;2023-11-19T01:17:09;10.02;;;5.57;;
42144;SDS011;27813;43.516;11.890;2023-11-19T01:21:14;11.90;;;7.20;;
42144;SDS011;27813;43.516;11.890;2023-11-19T01:25:18;13.32;;;6.85;;
42144;SDS011;27813;43.516;11.890;2023-11-19T01:29:23;10.27;;;6.18;;
42144;SDS011;27813;43.516;11.890;2023-11-19T01:33:29;11.90;;;6.13;;
42144;SDS011;27813;43.516;11.890;2023-11-19T01:37:32;8.40;;;4.68;;
42144;SDS011;27813;43.516;11.890;2023-11-19T01:41:37;9.18;;;4.72;;
42144;SDS011;27813;43.516;11.890;2023-11-19T01:45:44;18.60;;;7.65;;
42144;SDS011;27813;43.516;11.890;2023-11-19T01:49:48;8.68;;;4.88;;
42144;SDS011;27813;43.516;11.890;2023-11-19T01:53:54;10.45;;;5.22;;
42144;SDS011;27813;43.516;11.890;2023-11-19T01:57:59;8.57;;;5.20;;
42144;SDS011;27813;43.516;11.890;2023-11-19T02:02:06;10.63;;;6.20;;
42144;SDS011;27813;43.516;11.890;2023-11-19T02:06:11;8.07;;;5.18;;
42144;SDS011;27813;43.516;11.890;2023-11-19T02:10:15;9.33;;;5.23;;
42144;SDS011;27813;43.516;11.890;2023-11-19T02:14:22;10.85;;;6.40;;
42144;SDS011;27813;43.516;11.890;2023-11-19T02:18:28;11.02;;;6.35;;
42144;SDS011;27813;43.516;11.890;2023-11-19T02:22:32;10.50;;;6.10;;
42144;SDS011;27813;43.516;11.890;2023-11-19T02:26:39;10.90;;;4.95;;
42144;SDS011;27813;43.516;11.890;2023-11-19T02:30:48;7.85;;;5.40;;
42144;SDS011;27813;43.516;11.890;2023-11-19T02:34:52;9.38;;;4.57;;
42144;SDS011;27813;43.516;11.890;2023-11-19T02:38:56;7.20;;;4.40;;
42144;SDS011;27813;43.516;11.890;2023-11-19T02:42:59;9.00;;;5.13;;
42144;SDS011;27813;43.516;11.890;2023-11-19T02:47:05;9.20;;;4.50;;
42144;SDS011;27813;43.516;11.890;2023-11-19T02:51:11;6.72;;;4.07;;
42144;SDS011;27813;43.516;11.890;2023-11-19T02:55:15;7.17;;;4.17;;
42144;SDS011;27813;43.516;11.890;2023-11-19T02:59:21;7.47;;;4.32;;
42144;SDS011;27813;43.516;11.890;2023-11-19T03:03:33;6.93;;;3.80;;
42144;SDS011;27813;43.516;11.890;2023-11-19T03:07:44;10.13;;;3.35;;
42144;SDS011;27813;43.516;11.890;2023-11-19T03:11:48;5.80;;;3.70;;
42144;SDS011;27813;43.516;11.890;2023-11-19T03:15:52;8.17;;;4.17;;
42144;SDS011;27813;43.516;11.890;2023-11-19T03:19:59;8.82;;;4.13;;
42144;SDS011;27813;43.516;11.890;2023-11-19T03:24:04;8.60;;;4.18;;
42144;SDS011;27813;43.516;11.890;2023-11-19T03:28:08;12.20;;;5.10;;
42144;SDS011;27813;43.516;11.890;2023-11-19T03:32:12;7.77;;;4.57;;
42144;SDS011;27813;43.516;11.890;2023-11-19T03:36:15;8.50;;;4.90;;
42144;SDS011;27813;43.516;11.890;2023-11-19T03:40:20;8.15;;;4.82;;
42144;SDS011;27813;43.516;11.890;2023-11-19T03:44:25;9.45;;;3.90;;
42144;SDS011;27813;43.516;11.890;2023-11-19T03:48:30;9.50;;;3.92;;
42144;SDS011;27813;43.516;11.890;2023-11-19T03:52:36;9.63;;;4.90;;
42144;SDS011;27813;43.516;11.890;2023-11-19T03:56:43;7.60;;;4.25;;
42144;SDS011;27813;43.516;11.890;2023-11-19T04:00:48;6.50;;;4.25;;
42144;SDS011;27813;43.516;11.890;2023-11-19T04:04:52;10.05;;;5.07;;
42144;SDS011;27813;43.516;11.890;2023-11-19T04:08:55;7.65;;;4.28;;
42144;SDS011;27813;43.516;11.890;2023-11-19T04:12:59;7.45;;;4.63;;
42144;SDS011;27813;43.516;11.890;2023-11-19T04:17:04;5.53;;;3.88;;
42144;SDS011;27813;43.516;11.890;2023-11-19T04:21:08;9.07;;;5.05;;
42144;SDS011;27813;43.516;11.890;2023-11-19T04:25:11;6.78;;;4.85;;
42144;SDS011;27813;43.516;11.890;2023-11-19T04:29:17;7.70;;;4.40;;
42144;SDS011;27813;43.516;11.890;2023-11-19T04:33:22;7.85;;;3.92;;
42144;SDS011;27813;43.516;11.890;2023-11-19T04:37:26;9.88;;;5.38;;
42144;SDS011;27813;43.516;11.890;2023-11-19T04:41:30;9.80;;;4.32;;
42144;SDS011;27813;43.516;11.890;2023-11-19T04:45:34;9.95;;;4.53;;
42144;SDS011;27813;43.516;11.890;2023-11-19T04:49:41;7.03;;;4.47;;
42144;SDS011;27813;43.516;11.890;2023-11-19T04:53:46;10.43;;;4.80;;
42144;SDS011;27813;43.516;11.890;2023-11-19T04:57:49;9.10;;;5.15;;
42144;SDS011;27813;43.516;11.890;2023-11-19T05:01:53;7.13;;;4.97;;
42144;SDS011;27813;43.516;11.890;2023-11-19T05:05:57;8.98;;;5.18;;
42144;SDS011;27813;43.516;11.890;2023-11-19T05:10:02;7.10;;;4.80;;
42144;SDS011;27813;43.516;11.890;2023-11-19T05:18:12;7.55;;;4.80;;
42144;SDS011;27813;43.516;11.890;2023-11-19T05:22:15;8.43;;;5.38;;
42144;SDS011;27813;43.516;11.890;2023-11-19T05:26:20;5.97;;;4.15;;
42144;SDS011;27813;43.516;11.890;2023-11-19T05:30:26;8.57;;;5.03;;
42144;SDS011;27813;43.516;11.890;2023-11-19T05:34:30;9.07;;;4.78;;
42144;SDS011;27813;43.516;11.890;2023-11-19T05:38:34;7.28;;;4.90;;
42144;SDS011;27813;43.516;11.890;2023-11-19T05:42:39;8.57;;;5.57;;
42144;SDS011;27813;43.516;11.890;2023-11-19T05:46:43;9.93;;;5.47;;
42144;SDS011;27813;43.516;11.890;2023-11-19T05:50:48;5.57;;;4.17;;
42144;SDS011;27813;43.516;11.890;2023-11-19T05:54:52;18.00;;;6.22;;
42144;SDS011;27813;43.516;11.890;2023-11-19T05:58:56;7.18;;;3.63;;
42144;SDS011;27813;43.516;11.890;2023-11-19T06:03:00;12.32;;;4.53;;
42144;SDS011;27813;43.516;11.890;2023-11-19T06:07:04;6.97;;;4.73;;
42144;SDS011;27813;43.516;11.890;2023-11-19T06:11:09;8.52;;;4.88;;
42144;SDS011;27813;43.516;11.890;2023-11-19T06:15:18;7.97;;;4.82;;
42144;SDS011;27813;43.516;11.890;2023-11-19T06:19:21;8.50;;;5.25;;
42144;SDS011;27813;43.516;11.890;2023-11-19T06:23:31;8.70;;;5.13;;
42144;SDS011;27813;43.516;11.890;2023-11-19T06:27:35;10.85;;;5.03;;
42144;SDS011;27813;43.516;11.890;2023-11-19T06:31:40;7.85;;;4.80;;
42144;SDS011;27813;43.516;11.890;2023-11-19T06:35:45;9.07;;;5.20;;
42144;SDS011;27813;43.516;11.890;2023-11-19T06:39:48;9.52;;;5.40;;
42144;SDS011;27813;43.516;11.890;2023-11-19T06:43:52;7.75;;;5.15;;
42144;SDS011;27813;43.516;11.890;2023-11-19T06:47:56;11.52;;;5.70;;
42144;SDS011;27813;43.516;11.890;2023-11-19T06:51:59;11.05;;;5.72;;
42144;SDS011;27813;43.516;11.890;2023-11-19T06:56:03;8.48;;;6.18;;
42144;SDS011;27813;43.516;11.890;2023-11-19T07:00:09;9.18;;;6.10;;
42144;SDS011;27813;43.516;11.890;2023-11-19T07:04:14;11.65;;;6.13;;
42144;SDS011;27813;43.516;11.890;2023-11-19T07:08:18;10.88;;;5.72;;
42144;SDS011;27813;43.516;11.890;2023-11-19T07:12:21;8.68;;;5.97;;
42144;SDS011;27813;43.516;11.890;2023-11-19T07:16:26;10.55;;;6.45;;
42144;SDS011;27813;43.516;11.890;2023-11-19T07:20:29;9.82;;;6.72;;
42144;SDS011;27813;43.516;11.890;2023-11-19T07:24:36;11.90;;;6.80;;
42144;SDS011;27813;43.516;11.890;2023-11-19T07:28:41;15.90;;;8.45;;
42144;SDS011;27813;43.516;11.890;2023-11-19T07:32:47;13.40;;;8.98;;
42144;SDS011;27813;43.516;11.890;2023-11-19T07:36:53;16.73;;;9.77;;
42144;SDS011;27813;43.516;11.890;2023-11-19T07:40:57;12.77;;;8.65;;
42144;SDS011;27813;43.516;11.890;2023-11-19T07:45:01;14.30;;;9.57;;
42144;SDS011;27813;43.516;11.890;2023-11-19T07:49:05;13.32;;;8.20;;
42144;SDS011;27813;43.516;11.890;2023-11-19T07:53:09;12.65;;;7.90;;
42144;SDS011;27813;43.516;11.890;2023-11-19T07:57:15;16.08;;;8.85;;
42144;SDS011;27813;43.516;11.890;2023-11-19T08:01:19;15.07;;;8.38;;
42144;SDS011;27813;43.516;11.890;2023-11-19T08:05:23;11.65;;;8.52;;
42144;SDS011;27813;43.516;11.890;2023-11-19T08:09:27;17.95;;;9.98;;
42144;SDS011;27813;43.516;11.890;2023-11-19T08:13:32;14.65;;;8.90;;
42144;SDS011;27813;43.516;11.890;2023-11-19T08:17:36;14.93;;;10.50;;
42144;SDS011;27813;43.516;11.890;2023-11-19T08:21:40;17.90;;;10.68;;
42144;SDS011;27813;43.516;11.890;2023-11-19T08:25:48;20.60;;;13.65;;
42144;SDS011;27813;43.516;11.890;2023-11-19T08:29:53;20.92;;;14.50;;
42144;SDS011;27813;43.516;11.890;2023-11-19T08:34:00;18.70;;;14.23;;
42144;SDS011;27813;43.516;11.890;2023-11-19T08:38:04;18.37;;;13.00;;
42144;SDS011;27813;43.516;11.890;2023-11-19T08:42:14;13.52;;;9.85;;
42144;SDS011;27813;43.516;11.890;2023-11-19T08:46:20;12.85;;;9.43;;
42144;SDS011;27813;43.516;11.890;2023-11-19T08:50:26;14.18;;;9.45;;
42144;SDS011;27813;43.516;11.890;2023-11-19T08:54:30;11.97;;;9.07;;
42144;SDS011;27813;43.516;11.890;2023-11-19T08:58:40;19.17;;;11.15;;
42144;SDS011;27813;43.516;11.890;2023-11-19T09:02:45;15.57;;;10.43;;
42144;SDS011;27813;43.516;11.890;2023-11-19T09:06:49;13.80;;;10.60;;
42144;SDS011;27813;43.516;11.890;2023-11-19T09:10:53;13.80;;;10.57;;
42144;SDS011;27813;43.516;11.890;2023-11-19T09:14:57;15.65;;;11.45;;
42144;SDS011;27813;43.516;11.890;2023-11-19T09:19:03;16.25;;;11.48;;
42144;SDS011;27813;43.516;11.890;2023-11-19T09:23:08;18.60;;;12.45;;
42144;SDS011;27813;43.516;11.890;2023-11-19T09:27:12;22.07;;;12.07;;
42144;SDS011;27813;43.516;11.890;2023-11-19T09:31:16;15.30;;;12.00;;
42144;SDS011;27813;43.516;11.890;2023-11-19T09:35:21;21.65;;;12.82;;
42144;SDS011;27813;43.516;11.890;2023-11-19T09:39:25;16.92;;;12.25;;
42144;SDS011;27813;43.516;11.890;2023-11-19T09:43:29;19.77;;;14.00;;
42144;SDS011;27813;43.516;11.890;2023-11-19T09:51:37;19.90;;;12.68;;
42144;SDS011;27813;43.516;11.890;2023-11-19T09:55:42;17.95;;;12.23;;
42144;SDS011;27813;43.516;11.890;2023-11-19T09:59:48;18.45;;;13.02;;
42144;SDS011;27813;43.516;11.890;2023-11-19T10:03:53;19.10;;;12.27;;
42144;SDS011;27813;43.516;11.890;2023-11-19T10:07:59;21.67;;;14.52;;
42144;SDS011;27813;43.516;11.890;2023-11-19T10:12:05;18.90;;;14.43;;
42144;SDS011;27813;43.516;11.890;2023-11-19T10:16:11;26.08;;;19.05;;
42144;SDS011;27813;43.516;11.890;2023-11-19T10:20:16;25.73;;;18.98;;
42144;SDS011;27813;43.516;11.890;2023-11-19T10:24:38;29.92;;;21.52;;
42144;SDS011;27813;43.516;11.890;2023-11-19T10:28:50;36.60;;;25.17;;
42144;SDS011;27813;43.516;11.890;2023-11-19T10:37:27;31.15;;;23.15;;
42144;SDS011;27813;43.516;11.890;2023-11-19T10:41:36;26.65;;;19.38;;
42144;SDS011;27813;43.516;11.890;2023-11-19T10:45:40;22.13;;;16.20;;
42144;SDS011;27813;43.516;11.890;2023-11-19T10:49:44;16.75;;;13.65;;
42144;SDS011;27813;43.516;11.890;2023-11-19T10:53:51;16.42;;;13.75;;
42144;SDS011;27813;43.516;11.890;2023-11-19T10:58:03;16.92;;;12.57;;
42144;SDS011;27813;43.516;11.890;2023-11-19T11:02:09;15.88;;;11.68;;
42144;SDS011;27813;43.516;11.890;2023-11-19T11:06:17;14.85;;;11.25;;
42144;SDS011;27813;43.516;11.890;2023-11-19T11:10:24;16.30;;;10.55;;
42144;SDS011;27813;43.516;11.890;2023-11-19T11:14:29;14.27;;;10.95;;
42144;SDS011;27813;43.516;11.890;2023-11-19T11:18:35;14.30;;;10.80;;
42144;SDS011;27813;43.516;11.890;2023-11-19T11:27:43;18.10;;;11.13;;
42144;SDS011;27813;43.516;11.890;2023-11-19T11:36:20;12.77;;;9.95;;
42144;SDS011;27813;43.516;11.890;2023-11-19T11:40:28;17.23;;;10.80;;
42144;SDS011;27813;43.516;11.890;2023-11-19T11:49:04;14.38;;;10.43;;
42144;SDS011;27813;43.516;11.890;2023-11-19T11:53:13;15.15;;;10.57;;
42144;SDS011;27813;43.516;11.890;2023-11-19T11:57:17;13.57;;;10.13;;
42144;SDS011;27813;43.516;11.890;2023-11-19T12:01:21;18.45;;;11.10;;
42144;SDS011;27813;43.516;11.890;2023-11-19T12:05:28;14.70;;;10.57;;
42144;SDS011;27813;43.516;11.890;2023-11-19T12:09:33;20.15;;;11.93;;
42144;SDS011;27813;43.516;11.890;2023-11-19T12:13:47;15.05;;;9.68;;
42144;SDS011;27813;43.516;11.890;2023-11-19T12:18:05;12.70;;;9.23;;
42144;SDS011;27813;43.516;11.890;2023-11-19T12:22:11;13.02;;;8.65;;
42144;SDS011;27813;43.516;11.890;2023-11-19T12:26:30;12.95;;;8.30;;
42144;SDS011;27813;43.516;11.890;2023-11-19T12:30:38;11.57;;;8.88;;
42144;SDS011;27813;43.516;11.890;2023-11-19T12:34:42;11.40;;;8.45;;
42144;SDS011;27813;43.516;11.890;2023-11-19T12:38:48;14.65;;;8.82;;
42144;SDS011;27813;43.516;11.890;2023-11-19T12:42:52;17.05;;;8.98;;
42144;SDS011;27813;43.516;11.890;2023-11-19T12:51:07;12.20;;;8.25;;
42144;SDS011;27813;43.516;11.890;2023-11-19T12:55:29;14.02;;;9.13;;
42144;SDS011;27813;43.516;11.890;2023-11-19T12:59:33;13.35;;;8.38;;
42144;SDS011;27813;43.516;11.890;2023-11-19T13:03:38;17.38;;;9.32;;
42144;SDS011;27813;43.516;11.890;2023-11-19T13:11:46;13.23;;;8.60;;
42144;SDS011;27813;43.516;11.890;2023-11-19T13:15:49;10.68;;;7.35;;
42144;SDS011;27813;43.516;11.890;2023-11-19T13:19:53;13.38;;;9.18;;
42144;SDS011;27813;43.516;11.890;2023-11-19T13:24:00;11.57;;;7.90;;
42144;SDS011;27813;43.516;11.890;2023-11-19T13:28:04;12.68;;;8.40;;
42144;SDS011;27813;43.516;11.890;2023-11-19T13:32:08;14.32;;;9.45;;
42144;SDS011;27813;43.516;11.890;2023-11-19T13:36:12;11.90;;;8.10;;
42144;SDS011;27813;43.516;11.890;2023-11-19T13:40:19;11.40;;;8.15;;
42144;SDS011;27813;43.516;11.890;2023-11-19T13:44:26;11.38;;;7.65;;
42144;SDS011;27813;43.516;11.890;2023-11-19T13:48:34;12.80;;;8.25;;
42144;SDS011;27813;43.516;11.890;2023-11-19T13:52:38;13.73;;;8.27;;
42144;SDS011;27813;43.516;11.890;2023-11-19T13:56:43;14.45;;;9.38;;
42144;SDS011;27813;43.516;11.890;2023-11-19T14:00:49;13.25;;;8.93;;
42144;SDS011;27813;43.516;11.890;2023-11-19T14:04:53;13.57;;;9.05;;
42144;SDS011;27813;43.516;11.890;2023-11-19T14:08:57;16.10;;;8.25;;
42144;SDS011;27813;43.516;11.890;2023-11-19T14:13:01;18.95;;;11.43;;
42144;SDS011;27813;43.516;11.890;2023-11-19T14:17:06;27.13;;;14.18;;
42144;SDS011;27813;43.516;11.890;2023-11-19T14:21:13;23.35;;;13.68;;
42144;SDS011;27813;43.516;11.890;2023-11-19T14:25:17;22.83;;;13.03;;
42144;SDS011;27813;43.516;11.890;2023-11-19T14:29:21;27.70;;;12.73;;
42144;SDS011;27813;43.516;11.890;2023-11-19T14:33:25;20.45;;;11.98;;
42144;SDS011;27813;43.516;11.890;2023-11-19T14:37:29;22.42;;;11.80;;
42144;SDS011;27813;43.516;11.890;2023-11-19T14:41:36;20.80;;;12.93;;
42144;SDS011;27813;43.516;11.890;2023-11-19T14:45:41;19.80;;;12.00;;
42144;SDS011;27813;43.516;11.890;2023-11-19T14:49:52;17.92;;;11.18;;
42144;SDS011;27813;43.516;11.890;2023-11-19T14:53:55;17.08;;;10.38;;
42144;SDS011;27813;43.516;11.890;2023-11-19T14:58:00;19.25;;;10.95;;
42144;SDS011;27813;43.516;11.890;2023-11-19T15:02:11;16.60;;;8.77;;
42144;SDS011;27813;43.516;11.890;2023-11-19T15:06:16;19.20;;;9.70;;
42144;SDS011;27813;43.516;11.890;2023-11-19T15:10:20;21.20;;;10.02;;
42144;SDS011;27813;43.516;11.890;2023-11-19T15:14:23;15.98;;;8.68;;
42144;SDS011;27813;43.516;11.890;2023-11-19T15:18:28;22.73;;;10.02;;
42144;SDS011;27813;43.516;11.890;2023-11-19T15:22:34;23.45;;;14.13;;
42144;SDS011;27813;43.516;11.890;2023-11-19T15:26:38;21.48;;;12.43;;
42144;SDS011;27813;43.516;11.890;2023-11-19T15:30:43;22.80;;;13.88;;
42144;SDS011;27813;43.516;11.890;2023-11-19T15:34:47;21.17;;;13.85;;
42144;SDS011;27813;43.516;11.890;2023-11-19T15:38:51;19.48;;;11.93;;
42144;SDS011;27813;43.516;11.890;2023-11-19T15:42:56;20.92;;;12.73;;
42144;SDS011;27813;43.516;11.890;2023-11-19T15:47:03;14.82;;;9.25;;
42144;SDS011;27813;43.516;11.890;2023-11-19T15:51:09;17.52;;;11.07;;
42144;SDS011;27813;43.516;11.890;2023-11-19T15:55:21;17.05;;;9.95;;
42144;SDS011;27813;43.516;11.890;2023-11-19T15:59:26;17.60;;;10.13;;
42144;SDS011;27813;43.516;11.890;2023-11-19T16:03:30;13.98;;;8.77;;
42144;SDS011;27813;43.516;11.890;2023-11-19T16:07:55;15.57;;;9.27;;
42144;SDS011;27813;43.516;11.890;2023-11-19T16:11:59;14.38;;;9.10;;
42144;SDS011;27813;43.516;11.890;2023-11-19T16:16:04;14.30;;;9.10;;
42144;SDS011;27813;43.516;11.890;2023-11-19T16:20:10;14.80;;;10.38;;
42144;SDS011;27813;43.516;11.890;2023-11-19T16:28:20;15.07;;;9.90;;
42144;SDS011;27813;43.516;11.890;2023-11-19T16:32:26;26.38;;;14.25;;
42144;SDS011;27813;43.516;11.890;2023-11-19T16:36:30;22.42;;;12.68;;
42144;SDS011;27813;43.516;11.890;2023-11-19T16:40:35;16.08;;;10.32;;
42144;SDS011;27813;43.516;11.890;2023-11-19T16:44:42;14.63;;;10.00;;
42144;SDS011;27813;43.516;11.890;2023-11-19T16:48:49;16.20;;;10.38;;
42144;SDS011;27813;43.516;11.890;2023-11-19T16:52:57;20.83;;;12.45;;
42144;SDS011;27813;43.516;11.890;2023-11-19T16:57:04;19.88;;;11.30;;
42144;SDS011;27813;43.516;11.890;2023-11-19T17:01:11;19.73;;;11.70;;
42144;SDS011;27813;43.516;11.890;2023-11-19T17:05:17;17.23;;;11.98;;
42144;SDS011;27813;43.516;11.890;2023-11-19T17:09:21;16.25;;;10.88;;
42144;SDS011;27813;43.516;11.890;2023-11-19T17:13:25;18.35;;;11.32;;
42144;SDS011;27813;43.516;11.890;2023-11-19T17:17:30;17.38;;;10.75;;
42144;SDS011;27813;43.516;11.890;2023-11-19T17:21:38;21.52;;;11.40;;
42144;SDS011;27813;43.516;11.890;2023-11-19T17:25:42;24.60;;;15.88;;
42144;SDS011;27813;43.516;11.890;2023-11-19T17:29:47;36.00;;;22.55;;
42144;SDS011;27813;43.516;11.890;2023-11-19T17:33:51;30.20;;;20.17;;
42144;SDS011;27813;43.516;11.890;2023-11-19T17:37:55;29.45;;;20.20;;
42144;SDS011;27813;43.516;11.890;2023-11-19T17:41:59;27.37;;;19.10;;
42144;SDS011;27813;43.516;11.890;2023-11-19T17:46:04;20.98;;;16.10;;
42144;SDS011;27813;43.516;11.890;2023-11-19T17:50:10;17.10;;;10.68;;
42144;SDS011;27813;43.516;11.890;2023-11-19T17:54:17;17.08;;;11.05;;
42144;SDS011;27813;43.516;11.890;2023-11-19T17:58:22;20.00;;;14.40;;
42144;SDS011;27813;43.516;11.890;2023-11-19T18:02:27;19.13;;;13.88;;
42144;SDS011;27813;43.516;11.890;2023-11-19T18:06:34;23.30;;;14.75;;
42144;SDS011;27813;43.516;11.890;2023-11-19T18:10:46;28.23;;;19.05;;
42144;SDS011;27813;43.516;11.890;2023-11-19T18:14:50;28.33;;;18.73;;
42144;SDS011;27813;43.516;11.890;2023-11-19T18:18:56;33.15;;;23.02;;
42144;SDS011;27813;43.516;11.890;2023-11-19T18:23:01;30.40;;;22.75;;
42144;SDS011;27813;43.516;11.890;2023-11-19T18:27:06;37.72;;;21.98;;
42144;SDS011;27813;43.516;11.890;2023-11-19T18:31:11;36.05;;;24.02;;
42144;SDS011;27813;43.516;11.890;2023-11-19T18:39:42;58.88;;;36.85;;
42144;SDS011;27813;43.516;11.890;2023-11-19T18:43:50;43.97;;;28.02;;
42144;SDS011;27813;43.516;11.890;2023-11-19T18:48:00;48.88;;;32.38;;
42144;SDS011;27813;43.516;11.890;2023-11-19T18:52:06;39.05;;;27.90;;
42144;SDS011;27813;43.516;11.890;2023-11-19T18:56:16;42.08;;;29.15;;
42144;SDS011;27813;43.516;11.890;2023-11-19T19:00:28;31.67;;;20.73;;
42144;SDS011;27813;43.516;11.890;2023-11-19T19:04:32;24.63;;;14.27;;
42144;SDS011;27813;43.516;11.890;2023-11-19T19:08:40;19.92;;;13.90;;
42144;SDS011;27813;43.516;11.890;2023-11-19T19:13:05;38.90;;;18.23;;
42144;SDS011;27813;43.516;11.890;2023-11-19T19:17:32;23.58;;;14.35;;
42144;SDS011;27813;43.516;11.890;2023-11-19T19:21:48;19.38;;;14.05;;
42144;SDS011;27813;43.516;11.890;2023-11-19T19:25:56;24.95;;;16.23;;
42144;SDS011;27813;43.516;11.890;2023-11-19T19:30:07;26.13;;;15.25;;
42144;SDS011;27813;43.516;11.890;2023-11-19T19:34:24;19.35;;;12.50;;
42144;SDS011;27813;43.516;11.890;2023-11-19T19:38:40;16.33;;;9.88;;
42144;SDS011;27813;43.516;11.890;2023-11-19T19:42:57;19.35;;;11.57;;
42144;SDS011;27813;43.516;11.890;2023-11-19T19:47:09;17.80;;;9.55;;
42144;SDS011;27813;43.516;11.890;2023-11-19T19:51:26;13.75;;;8.77;;
42144;SDS011;27813;43.516;11.890;2023-11-19T19:55:38;22.77;;;12.52;;
42144;SDS011;27813;43.516;11.890;2023-11-19T19:59:51;21.70;;;11.75;;
42144;SDS011;27813;43.516;11.890;2023-11-19T20:04:17;18.65;;;11.23;;
42144;SDS011;27813;43.516;11.890;2023-11-19T20:09:02;18.02;;;12.13;;
42144;SDS011;27813;43.516;11.890;2023-11-19T20:18:19;23.10;;;13.55;;
42144;SDS011;27813;43.516;11.890;2023-11-19T20:22:39;19.42;;;11.85;;
42144;SDS011;27813;43.516;11.890;2023-11-19T20:26:49;19.67;;;11.52;;
42144;SDS011;27813;43.516;11.890;2023-11-19T20:31:05;16.52;;;11.43;;
42144;SDS011;27813;43.516;11.890;2023-11-19T20:35:12;20.20;;;12.00;;
42144;SDS011;27813;43.516;11.890;2023-11-19T20:39:18;29.05;;;16.65;;
42144;SDS011;27813;43.516;11.890;2023-11-19T20:43:25;23.20;;;15.57;;
42144;SDS011;27813;43.516;11.890;2023-11-19T20:48:01;21.63;;;14.40;;
42144;SDS011;27813;43.516;11.890;2023-11-19T20:54:07;22.83;;;14.35;;
42144;SDS011;27813;43.516;11.890;2023-11-19T20:58:19;24.00;;;13.18;;
42144;SDS011;27813;43.516;11.890;2023-11-19T21:02:27;26.08;;;18.02;;
42144;SDS011;27813;43.516;11.890;2023-11-19T21:06:40;19.92;;;12.93;;
42144;SDS011;27813;43.516;11.890;2023-11-19T21:10:57;23.90;;;15.63;;
42144;SDS011;27813;43.516;11.890;2023-11-19T21:15:05;68.15;;;33.40;;
42144;SDS011;27813;43.516;11.890;2023-11-19T21:19:16;24.17;;;16.35;;
42144;SDS011;27813;43.516;11.890;2023-11-19T21:23:21;33.55;;;18.90;;
42144;SDS011;27813;43.516;11.890;2023-11-19T21:27:27;29.05;;;18.20;;
42144;SDS011;27813;43.516;11.890;2023-11-19T21:31:33;21.60;;;13.38;;
42144;SDS011;27813;43.516;11.890;2023-11-19T21:40:09;22.73;;;16.40;;
42144;SDS011;27813;43.516;11.890;2023-11-19T21:44:18;18.77;;;12.77;;
42144;SDS011;27813;43.516;11.890;2023-11-19T21:48:29;22.27;;;15.77;;
42144;SDS011;27813;43.516;11.890;2023-11-19T21:52:37;19.85;;;13.32;;
42144;SDS011;27813;43.516;11.890;2023-11-19T21:56:48;19.80;;;12.98;;
42144;SDS011;27813;43.516;11.890;2023-11-19T22:00:58;19.33;;;13.95;;
42144;SDS011;27813;43.516;11.890;2023-11-19T22:05:03;20.30;;;13.35;;
42144;SDS011;27813;43.516;11.890;2023-11-19T22:09:16;20.25;;;13.43;;
42144;SDS011;27813;43.516;11.890;2023-11-19T22:13:20;22.65;;;14.13;;
42144;SDS011;27813;43.516;11.890;2023-11-19T22:17:25;18.30;;;13.15;;
42144;SDS011;27813;43.516;11.890;2023-11-19T22:21:32;19.63;;;13.10;;
42144;SDS011;27813;43.516;11.890;2023-11-19T22:25:39;22.20;;;13.38;;
42144;SDS011;27813;43.516;11.890;2023-11-19T22:29:44;19.67;;;13.65;;
42144;SDS011;27813;43.516;11.890;2023-11-19T22:33:52;20.25;;;12.18;;
42144;SDS011;27813;43.516;11.890;2023-11-19T22:37:58;16.48;;;11.50;;
42144;SDS011;27813;43.516;11.890;2023-11-19T22:42:06;17.45;;;12.55;;
42144;SDS011;27813;43.516;11.890;2023-11-19T22:46:10;17.95;;;11.00;;
42144;SDS011;27813;43.516;11.890;2023-11-19T22:50:17;17.27;;;11.48;;
42144;SDS011;27813;43.516;11.890;2023-11-19T22:54:21;18.20;;;11.52;;
42144;SDS011;27813;43.516;11.890;2023-11-19T22:58:25;15.38;;;10.85;;
42144;SDS011;27813;43.516;11.890;2023-11-19T23:07:01;15.55;;;10.75;;
42144;SDS011;27813;43.516;11.890;2023-11-19T23:11:05;15.55;;;10.18;;
42144;SDS011;27813;43.516;11.890;2023-11-19T23:15:10;17.73;;;10.02;;
42144;SDS011;27813;43.516;11.890;2023-11-19T23:19:20;18.13;;;10.73;;
42144;SDS011;27813;43.516;11.890;2023-11-19T23:23:25;16.83;;;10.15;;
42144;SDS011;27813;43.516;11.890;2023-11-19T23:27:29;13.85;;;9.90;;
42144;SDS011;27813;43.516;11.890;2023-11-19T23:31:33;17.05;;;10.57;;
42144;SDS011;27813;43.516;11.890;2023-11-19T23:35:38;13.65;;;10.32;;
42144;SDS011;27813;43.516;11.890;2023-11-19T23:39:41;15.10;;;10.80;;
42144;SDS011;27813;43.516;11.890;2023-11-19T23:43:45;19.05;;;11.68;;
42144;SDS011;27813;43.516;11.890;2023-11-19T23:47:51;14.57;;;9.77;;
42144;SDS011;27813;43.516;11.890;2023-11-19T23:51:55;12.23;;;8.35;;
42144;SDS011;27813;43.516;11.890;2023-11-19T23:56:04;15.43;;;8.82;;
